Aérodrome :
LOGIN :

S'inscrire | Disclaimer

   EN    FR    IT 

 










Légende :    VFR   VFR Marginal   IFR   IFR Intensif   IFR Très Intensif
Visi : 
Plafond : 
>= 8 km
>= 3000ft
5 à 8 km
1000 à 3000 ft
1500m à 5 km
500 à 1000 ft
800 à 1500m
200 à 500 ft
< 800m
< 200 ft
Symboles :   Orages  Brouillard  Fortes neiges  Fortes précipitations  Vent > 20 kt
SIGMETs :   Divers  Orages  Givrage  Turbulence  Onde Orograph.  Cendres Volcan.






- Altitude de l'aérodrome : 622 ft
- Code IATA : BRS


EGGD - Bristol Int.

DERNIER METAR :
  • 230250Z AUTO 25010KT 9999 BKN004 OVC014 15/15 Q1015

METARs EXPIRÉS :
  • 230220Z AUTO 26010KT 9999 BKN009 OVC026 15/15 Q1015
  • 230150Z AUTO 26012KT 9999 BKN007 15/15 Q1015
  • 230120Z AUTO 27013KT 9999 BKN006 BKN009 OVC014 15/15 Q1015
  • 230050Z AUTO 26014KT 9999 BKN004 OVC021 16/16 Q1015 RERA
  • 230020Z AUTO 25018KT 1900 +RA OVC002 16/16 Q1014 REDZ
  • 222350Z AUTO 23006KT 180V270 9999 BKN006 OVC009 17/17 Q1014
  • 222320Z AUTO 20006KT 170V230 9000 -RA BKN006 OVC013 17/17 Q1014
  • 222250Z AUTO 19004KT 160V230 9999 BKN006 OVC017 16/16 Q1014
  • 222220Z AUTO 22003KT 5000 BR OVC006 16/16 Q1015
  • 222150Z AUTO 20004KT 170V230 6000 OVC008 16/16 Q1015

TAF AMD TAF EGGD
Valide du 23 à 00h jusqu'au 24 à 00h UTC


230032Z 2300/2324 26015KT 9999 FEW010 SCT020
TEMPO 2300/2304 1200 RADZ +RA BKN002
TEMPO 2304/2310 8000 -RADZ BKN007
ATIS : +44 1275 473 666



MET'MAP, la Météo Aéronautique d'un coup d'oeil ! - Copyright ORBIFLY Décembre 2007 - Disclaimer

ORBIFLY MET'MAP TEAM :

Programmation & Développement : Alexandra Zaïnal
Sur une idée originale de : Baudouin d'Aumeries
Soutien technique & logistique : Manuel Goepfert
Assistance : Marc-Olivier Méhu




SOURCES & CREDITS :

   NOAA